sensor_id;sensor_type;location;lat;lon;timestamp;temperature;humidity
14170;DHT22;63889;50.596;8.690;2023-02-15T00:00:06;2.10;99.90
14170;DHT22;63889;50.596;8.690;2023-02-15T00:05:57;2.70;99.90
14170;DHT22;63889;50.596;8.690;2023-02-15T00:08:23;2.80;99.90
14170;DHT22;63889;50.596;8.690;2023-02-15T00:10:48;2.90;99.90
14170;DHT22;63889;50.596;8.690;2023-02-15T00:13:14;3.10;99.90
14170;DHT22;63889;50.596;8.690;2023-02-15T00:15:39;3.30;99.90
14170;DHT22;63889;50.596;8.690;2023-02-15T00:18:05;3.30;99.90
14170;DHT22;63889;50.596;8.690;2023-02-15T00:20:30;3.30;99.90
14170;DHT22;63889;50.596;8.690;2023-02-15T00:22:56;3.20;99.90
14170;DHT22;63889;50.596;8.690;2023-02-15T00:25:21;2.90;99.90
14170;DHT22;63889;50.596;8.690;2023-02-15T00:27:47;2.50;99.90
14170;DHT22;63889;50.596;8.690;2023-02-15T00:30:12;2.30;99.90
14170;DHT22;63889;50.596;8.690;2023-02-15T00:32:38;2.10;99.90
14170;DHT22;63889;50.596;8.690;2023-02-15T00:35:04;1.90;99.90
14170;DHT22;63889;50.596;8.690;2023-02-15T00:37:29;1.80;99.90
14170;DHT22;63889;50.596;8.690;2023-02-15T00:39:55;1.80;99.90
14170;DHT22;63889;50.596;8.690;2023-02-15T00:42:20;1.90;99.90
14170;DHT22;63889;50.596;8.690;2023-02-15T00:44:46;2.00;99.90
14170;DHT22;63889;50.596;8.690;2023-02-15T00:47:11;2.30;99.90
14170;DHT22;63889;50.596;8.690;2023-02-15T00:49:37;2.60;99.90
14170;DHT22;63889;50.596;8.690;2023-02-15T00:52:03;2.80;99.90
14170;DHT22;63889;50.596;8.690;2023-02-15T00:54:28;2.90;99.90
14170;DHT22;63889;50.596;8.690;2023-02-15T00:56:54;2.60;99.90
14170;DHT22;63889;50.596;8.690;2023-02-15T00:59:19;2.40;99.90
14170;DHT22;63889;50.596;8.690;2023-02-15T01:01:45;2.40;99.90
14170;DHT22;63889;50.596;8.690;2023-02-15T01:04:10;2.60;99.90
14170;DHT22;63889;50.596;8.690;2023-02-15T01:06:36;2.40;99.90
14170;DHT22;63889;50.596;8.690;2023-02-15T01:09:01;2.20;99.90
14170;DHT22;63889;50.596;8.690;2023-02-15T01:11:27;2.10;99.90
14170;DHT22;63889;50.596;8.690;2023-02-15T01:13:57;2.20;99.90
14170;DHT22;63889;50.596;8.690;2023-02-15T01:16:24;2.00;99.90
14170;DHT22;63889;50.596;8.690;2023-02-15T01:18:50;2.10;99.90
14170;DHT22;63889;50.596;8.690;2023-02-15T01:21:21;2.20;99.90
14170;DHT22;63889;50.596;8.690;2023-02-15T01:23:47;2.30;99.90
14170;DHT22;63889;50.596;8.690;2023-02-15T01:26:13;2.60;99.90
14170;DHT22;63889;50.596;8.690;2023-02-15T01:28:39;2.70;99.90
14170;DHT22;63889;50.596;8.690;2023-02-15T01:31:10;2.60;99.90
14170;DHT22;63889;50.596;8.690;2023-02-15T01:33:36;2.90;99.90
14170;DHT22;63889;50.596;8.690;2023-02-15T01:36:03;2.80;99.90
14170;DHT22;63889;50.596;8.690;2023-02-15T01:38:29;2.60;99.90
14170;DHT22;63889;50.596;8.690;2023-02-15T01:40:55;2.70;99.90
14170;DHT22;63889;50.596;8.690;2023-02-15T01:43:47;2.60;99.90
14170;DHT22;63889;50.596;8.690;2023-02-15T01:46:14;2.30;99.90
14170;DHT22;63889;50.596;8.690;2023-02-15T01:48:54;2.20;99.90
14170;DHT22;63889;50.596;8.690;2023-02-15T01:51:23;2.10;99.90
14170;DHT22;63889;50.596;8.690;2023-02-15T01:53:59;2.10;99.90
14170;DHT22;63889;50.596;8.690;2023-02-15T01:56:30;2.10;99.90
14170;DHT22;63889;50.596;8.690;2023-02-15T01:58:58;2.10;99.90
14170;DHT22;63889;50.596;8.690;2023-02-15T02:01:25;2.00;99.90
14170;DHT22;63889;50.596;8.690;2023-02-15T02:06:39;2.00;99.90
14170;DHT22;63889;50.596;8.690;2023-02-15T02:09:05;2.10;99.90
14170;DHT22;63889;50.596;8.690;2023-02-15T02:11:31;2.10;99.90
14170;DHT22;63889;50.596;8.690;2023-02-15T02:13:57;2.20;99.90
14170;DHT22;63889;50.596;8.690;2023-02-15T02:22:56;2.00;99.90
14170;DHT22;63889;50.596;8.690;2023-02-15T02:25:54;2.00;99.90
14170;DHT22;63889;50.596;8.690;2023-02-15T02:37:35;1.90;99.90
14170;DHT22;63889;50.596;8.690;2023-02-15T02:42:34;2.20;99.90
14170;DHT22;63889;50.596;8.690;2023-02-15T02:45:10;2.10;99.90
14170;DHT22;63889;50.596;8.690;2023-02-15T02:47:40;2.00;99.90
14170;DHT22;63889;50.596;8.690;2023-02-15T02:50:14;1.80;99.90
14170;DHT22;63889;50.596;8.690;2023-02-15T02:52:49;1.90;99.90
14170;DHT22;63889;50.596;8.690;2023-02-15T02:55:29;2.00;99.90
14170;DHT22;63889;50.596;8.690;2023-02-15T02:58:16;2.20;99.90
14170;DHT22;63889;50.596;8.690;2023-02-15T03:00:46;2.50;99.90
14170;DHT22;63889;50.596;8.690;2023-02-15T03:03:18;2.80;99.90
14170;DHT22;63889;50.596;8.690;2023-02-15T03:05:47;2.70;99.90
14170;DHT22;63889;50.596;8.690;2023-02-15T03:08:16;2.70;99.90
14170;DHT22;63889;50.596;8.690;2023-02-15T03:10:48;2.90;99.90
14170;DHT22;63889;50.596;8.690;2023-02-15T03:13:14;3.10;99.90
14170;DHT22;63889;50.596;8.690;2023-02-15T03:15:41;3.10;99.90
14170;DHT22;63889;50.596;8.690;2023-02-15T03:18:30;3.10;99.90
14170;DHT22;63889;50.596;8.690;2023-02-15T03:20:59;2.90;99.90
14170;DHT22;63889;50.596;8.690;2023-02-15T03:23:28;2.60;99.90
14170;DHT22;63889;50.596;8.690;2023-02-15T03:25:59;2.40;99.90
14170;DHT22;63889;50.596;8.690;2023-02-15T03:28:30;2.40;99.90
14170;DHT22;63889;50.596;8.690;2023-02-15T03:31:00;2.70;99.90
14170;DHT22;63889;50.596;8.690;2023-02-15T03:33:28;2.60;99.90
14170;DHT22;63889;50.596;8.690;2023-02-15T03:36:18;2.70;99.90
14170;DHT22;63889;50.596;8.690;2023-02-15T03:42:30;3.00;99.90
14170;DHT22;63889;50.596;8.690;2023-02-15T03:44:32;3.10;99.90
14170;DHT22;63889;50.596;8.690;2023-02-15T03:47:05;3.20;99.90
14170;DHT22;63889;50.596;8.690;2023-02-15T03:49:44;3.20;99.90
14170;DHT22;63889;50.596;8.690;2023-02-15T03:52:14;3.20;99.90
14170;DHT22;63889;50.596;8.690;2023-02-15T03:54:41;3.20;99.90
14170;DHT22;63889;50.596;8.690;2023-02-15T04:00:21;3.10;99.90
14170;DHT22;63889;50.596;8.690;2023-02-15T04:06:19;2.70;99.90
14170;DHT22;63889;50.596;8.690;2023-02-15T04:08:45;2.10;99.90
14170;DHT22;63889;50.596;8.690;2023-02-15T04:11:30;1.80;99.90
14170;DHT22;63889;50.596;8.690;2023-02-15T04:13:55;1.60;99.90
14170;DHT22;63889;50.596;8.690;2023-02-15T04:16:23;1.60;99.90
14170;DHT22;63889;50.596;8.690;2023-02-15T04:18:49;1.50;99.90
14170;DHT22;63889;50.596;8.690;2023-02-15T04:21:33;1.70;99.90
14170;DHT22;63889;50.596;8.690;2023-02-15T04:24:17;1.70;99.90
14170;DHT22;63889;50.596;8.690;2023-02-15T04:27:03;1.60;99.90
14170;DHT22;63889;50.596;8.690;2023-02-15T04:29:30;1.50;99.90
14170;DHT22;63889;50.596;8.690;2023-02-15T04:31:57;1.40;99.90
14170;DHT22;63889;50.596;8.690;2023-02-15T04:34:23;1.50;99.90
14170;DHT22;63889;50.596;8.690;2023-02-15T04:36:49;1.50;99.90
14170;DHT22;63889;50.596;8.690;2023-02-15T04:39:16;1.60;99.90
14170;DHT22;63889;50.596;8.690;2023-02-15T04:41:43;1.50;99.90
14170;DHT22;63889;50.596;8.690;2023-02-15T04:44:09;1.60;99.90
14170;DHT22;63889;50.596;8.690;2023-02-15T04:46:35;1.60;99.90
14170;DHT22;63889;50.596;8.690;2023-02-15T04:49:00;1.60;99.90
14170;DHT22;63889;50.596;8.690;2023-02-15T04:51:26;1.70;99.90
14170;DHT22;63889;50.596;8.690;2023-02-15T04:53:52;1.70;99.90
14170;DHT22;63889;50.596;8.690;2023-02-15T04:56:21;1.70;99.90
14170;DHT22;63889;50.596;8.690;2023-02-15T04:58:47;1.70;99.90
14170;DHT22;63889;50.596;8.690;2023-02-15T05:01:13;1.80;99.90
14170;DHT22;63889;50.596;8.690;2023-02-15T05:03:38;2.00;99.90
14170;DHT22;63889;50.596;8.690;2023-02-15T05:06:04;2.30;99.90
14170;DHT22;63889;50.596;8.690;2023-02-15T05:08:30;2.50;99.90
14170;DHT22;63889;50.596;8.690;2023-02-15T05:10:56;2.70;99.90
14170;DHT22;63889;50.596;8.690;2023-02-15T05:13:22;2.80;99.90
14170;DHT22;63889;50.596;8.690;2023-02-15T05:15:49;2.60;99.90
14170;DHT22;63889;50.596;8.690;2023-02-15T05:18:16;2.70;99.90
14170;DHT22;63889;50.596;8.690;2023-02-15T05:20:42;2.50;99.90
14170;DHT22;63889;50.596;8.690;2023-02-15T05:23:08;2.20;99.90
14170;DHT22;63889;50.596;8.690;2023-02-15T05:25:33;2.00;99.90
14170;DHT22;63889;50.596;8.690;2023-02-15T05:28:17;1.90;99.90
14170;DHT22;63889;50.596;8.690;2023-02-15T05:30:50;1.80;99.90
14170;DHT22;63889;50.596;8.690;2023-02-15T05:33:22;1.90;99.90
14170;DHT22;63889;50.596;8.690;2023-02-15T05:35:48;2.10;99.90
14170;DHT22;63889;50.596;8.690;2023-02-15T05:38:13;1.80;99.90
14170;DHT22;63889;50.596;8.690;2023-02-15T05:40:39;1.60;99.90
14170;DHT22;63889;50.596;8.690;2023-02-15T05:43:04;1.60;99.90
14170;DHT22;63889;50.596;8.690;2023-02-15T05:45:30;1.50;99.90
14170;DHT22;63889;50.596;8.690;2023-02-15T05:47:55;1.40;99.90
14170;DHT22;63889;50.596;8.690;2023-02-15T05:50:23;1.50;99.90
14170;DHT22;63889;50.596;8.690;2023-02-15T05:52:49;1.50;99.90
14170;DHT22;63889;50.596;8.690;2023-02-15T05:55:14;1.50;99.90
14170;DHT22;63889;50.596;8.690;2023-02-15T05:57:40;1.50;99.90
14170;DHT22;63889;50.596;8.690;2023-02-15T06:00:06;1.60;99.90
14170;DHT22;63889;50.596;8.690;2023-02-15T06:02:36;1.80;99.90
14170;DHT22;63889;50.596;8.690;2023-02-15T06:05:02;1.70;99.90
14170;DHT22;63889;50.596;8.690;2023-02-15T06:07:28;1.60;99.90
14170;DHT22;63889;50.596;8.690;2023-02-15T06:09:53;1.70;99.90
14170;DHT22;63889;50.596;8.690;2023-02-15T06:12:19;1.50;99.90
14170;DHT22;63889;50.596;8.690;2023-02-15T06:14:44;1.60;99.90
14170;DHT22;63889;50.596;8.690;2023-02-15T06:17:10;1.80;99.90
14170;DHT22;63889;50.596;8.690;2023-02-15T06:19:35;2.00;99.90
14170;DHT22;63889;50.596;8.690;2023-02-15T06:22:01;2.00;99.90
14170;DHT22;63889;50.596;8.690;2023-02-15T06:24:26;2.10;99.90
14170;DHT22;63889;50.596;8.690;2023-02-15T06:26:52;2.10;99.90
14170;DHT22;63889;50.596;8.690;2023-02-15T06:29:17;1.90;99.90
14170;DHT22;63889;50.596;8.690;2023-02-15T06:31:43;2.00;99.90
14170;DHT22;63889;50.596;8.690;2023-02-15T06:34:08;2.20;99.90
14170;DHT22;63889;50.596;8.690;2023-02-15T06:36:34;2.00;99.90
14170;DHT22;63889;50.596;8.690;2023-02-15T06:38:59;2.20;99.90
14170;DHT22;63889;50.596;8.690;2023-02-15T06:41:25;2.10;99.90
14170;DHT22;63889;50.596;8.690;2023-02-15T06:43:51;2.20;99.90
14170;DHT22;63889;50.596;8.690;2023-02-15T06:46:16;2.40;99.90
14170;DHT22;63889;50.596;8.690;2023-02-15T06:48:42;2.40;99.90
14170;DHT22;63889;50.596;8.690;2023-02-15T06:51:07;2.30;99.90
14170;DHT22;63889;50.596;8.690;2023-02-15T06:53:33;2.30;99.90
14170;DHT22;63889;50.596;8.690;2023-02-15T06:56:03;2.20;99.90
14170;DHT22;63889;50.596;8.690;2023-02-15T06:58:32;2.10;99.90
14170;DHT22;63889;50.596;8.690;2023-02-15T07:00:58;2.10;99.90
14170;DHT22;63889;50.596;8.690;2023-02-15T07:03:24;2.20;99.90
14170;DHT22;63889;50.596;8.690;2023-02-15T07:05:54;2.40;99.90
14170;DHT22;63889;50.596;8.690;2023-02-15T07:08:21;2.50;99.90
14170;DHT22;63889;50.596;8.690;2023-02-15T07:10:48;2.70;99.90
14170;DHT22;63889;50.596;8.690;2023-02-15T07:13:14;2.70;99.90
14170;DHT22;63889;50.596;8.690;2023-02-15T07:15:39;2.70;99.90
14170;DHT22;63889;50.596;8.690;2023-02-15T07:18:05;2.50;99.90
14170;DHT22;63889;50.596;8.690;2023-02-15T07:20:30;2.40;99.90
14170;DHT22;63889;50.596;8.690;2023-02-15T07:22:56;2.40;99.90
14170;DHT22;63889;50.596;8.690;2023-02-15T07:25:22;2.20;99.90
14170;DHT22;63889;50.596;8.690;2023-02-15T07:27:47;2.00;99.90
14170;DHT22;63889;50.596;8.690;2023-02-15T07:30:15;1.90;99.90
14170;DHT22;63889;50.596;8.690;2023-02-15T07:32:41;2.00;99.90
14170;DHT22;63889;50.596;8.690;2023-02-15T07:35:27;2.10;99.90
14170;DHT22;63889;50.596;8.690;2023-02-15T07:37:52;2.00;99.90
14170;DHT22;63889;50.596;8.690;2023-02-15T07:40:18;2.10;99.90
14170;DHT22;63889;50.596;8.690;2023-02-15T07:42:44;2.30;99.90
14170;DHT22;63889;50.596;8.690;2023-02-15T07:45:09;2.30;99.90
14170;DHT22;63889;50.596;8.690;2023-02-15T07:47:35;2.40;99.90
14170;DHT22;63889;50.596;8.690;2023-02-15T07:50:01;2.30;99.90
14170;DHT22;63889;50.596;8.690;2023-02-15T07:52:30;2.20;99.90
14170;DHT22;63889;50.596;8.690;2023-02-15T07:54:55;2.20;99.90
14170;DHT22;63889;50.596;8.690;2023-02-15T07:57:21;2.40;99.90
14170;DHT22;63889;50.596;8.690;2023-02-15T07:59:46;2.60;99.90
14170;DHT22;63889;50.596;8.690;2023-02-15T08:02:12;2.60;99.90
14170;DHT22;63889;50.596;8.690;2023-02-15T08:04:37;2.40;99.90
14170;DHT22;63889;50.596;8.690;2023-02-15T08:07:04;2.50;99.90
14170;DHT22;63889;50.596;8.690;2023-02-15T08:09:30;2.60;99.90
14170;DHT22;63889;50.596;8.690;2023-02-15T08:11:55;2.70;99.90
14170;DHT22;63889;50.596;8.690;2023-02-15T08:14:21;2.70;99.90
14170;DHT22;63889;50.596;8.690;2023-02-15T08:16:54;2.70;99.90
14170;DHT22;63889;50.596;8.690;2023-02-15T08:19:22;2.70;99.90
14170;DHT22;63889;50.596;8.690;2023-02-15T08:21:59;2.90;99.90
14170;DHT22;63889;50.596;8.690;2023-02-15T08:24:27;2.90;99.90
14170;DHT22;63889;50.596;8.690;2023-02-15T08:26:53;3.00;99.90
14170;DHT22;63889;50.596;8.690;2023-02-15T08:29:21;3.00;99.90
14170;DHT22;63889;50.596;8.690;2023-02-15T08:31:54;3.10;99.90
14170;DHT22;63889;50.596;8.690;2023-02-15T08:34:20;2.70;99.90
14170;DHT22;63889;50.596;8.690;2023-02-15T08:36:46;2.40;99.90
14170;DHT22;63889;50.596;8.690;2023-02-15T08:39:13;2.40;99.90
14170;DHT22;63889;50.596;8.690;2023-02-15T08:41:42;2.50;99.90
14170;DHT22;63889;50.596;8.690;2023-02-15T08:44:09;2.40;99.90
14170;DHT22;63889;50.596;8.690;2023-02-15T08:46:37;2.40;99.90
14170;DHT22;63889;50.596;8.690;2023-02-15T08:49:04;2.30;99.90
14170;DHT22;63889;50.596;8.690;2023-02-15T08:51:31;2.30;99.90
14170;DHT22;63889;50.596;8.690;2023-02-15T08:54:00;2.30;99.90
14170;DHT22;63889;50.596;8.690;2023-02-15T08:56:28;2.40;99.90
14170;DHT22;63889;50.596;8.690;2023-02-15T08:58:54;2.50;99.90
14170;DHT22;63889;50.596;8.690;2023-02-15T09:01:23;2.60;99.90
14170;DHT22;63889;50.596;8.690;2023-02-15T09:03:50;2.70;99.90
14170;DHT22;63889;50.596;8.690;2023-02-15T09:06:19;2.70;99.90
14170;DHT22;63889;50.596;8.690;2023-02-15T09:08:45;2.80;99.90
14170;DHT22;63889;50.596;8.690;2023-02-15T09:11:13;2.70;99.90
14170;DHT22;63889;50.596;8.690;2023-02-15T09:13:42;2.70;99.90
14170;DHT22;63889;50.596;8.690;2023-02-15T09:16:08;2.80;99.90
14170;DHT22;63889;50.596;8.690;2023-02-15T09:18:38;2.70;99.90
14170;DHT22;63889;50.596;8.690;2023-02-15T09:21:12;2.80;99.90
14170;DHT22;63889;50.596;8.690;2023-02-15T09:23:39;3.00;99.90
14170;DHT22;63889;50.596;8.690;2023-02-15T09:26:07;2.90;99.90
14170;DHT22;63889;50.596;8.690;2023-02-15T09:28:34;3.00;99.90
14170;DHT22;63889;50.596;8.690;2023-02-15T09:33:33;2.50;99.90
14170;DHT22;63889;50.596;8.690;2023-02-15T09:36:00;2.40;99.90
14170;DHT22;63889;50.596;8.690;2023-02-15T09:38:25;2.50;99.90
14170;DHT22;63889;50.596;8.690;2023-02-15T09:41:06;2.70;99.90
14170;DHT22;63889;50.596;8.690;2023-02-15T09:49:28;3.10;99.90
14170;DHT22;63889;50.596;8.690;2023-02-15T09:52:05;3.10;99.90
14170;DHT22;63889;50.596;8.690;2023-02-15T10:09:00;3.10;99.90
14170;DHT22;63889;50.596;8.690;2023-02-15T10:11:27;3.30;99.90
14170;DHT22;63889;50.596;8.690;2023-02-15T10:14:30;3.50;99.90
14170;DHT22;63889;50.596;8.690;2023-02-15T10:27:45;2.70;99.90
14170;DHT22;63889;50.596;8.690;2023-02-15T10:30:36;2.50;99.90
14170;DHT22;63889;50.596;8.690;2023-02-15T10:33:04;2.50;99.90
14170;DHT22;63889;50.596;8.690;2023-02-15T10:41:46;2.50;99.90
14170;DHT22;63889;50.596;8.690;2023-02-15T10:44:24;2.60;99.90
14170;DHT22;63889;50.596;8.690;2023-02-15T10:55:43;2.60;99.90
14170;DHT22;63889;50.596;8.690;2023-02-15T11:01:11;2.60;99.90
14170;DHT22;63889;50.596;8.690;2023-02-15T11:06:29;2.80;99.90
14170;DHT22;63889;50.596;8.690;2023-02-15T11:09:00;2.80;99.90
14170;DHT22;63889;50.596;8.690;2023-02-15T11:11:31;3.10;99.90
14170;DHT22;63889;50.596;8.690;2023-02-15T11:14:01;3.40;99.90
14170;DHT22;63889;50.596;8.690;2023-02-15T11:16:37;3.50;99.90
14170;DHT22;63889;50.596;8.690;2023-02-15T11:19:17;3.60;99.90
14170;DHT22;63889;50.596;8.690;2023-02-15T11:21:48;3.40;99.90
14170;DHT22;63889;50.596;8.690;2023-02-15T11:24:17;3.30;99.90
14170;DHT22;63889;50.596;8.690;2023-02-15T11:26:51;3.20;99.90
14170;DHT22;63889;50.596;8.690;2023-02-15T11:29:39;3.40;99.90
14170;DHT22;63889;50.596;8.690;2023-02-15T11:32:14;3.50;99.90
14170;DHT22;63889;50.596;8.690;2023-02-15T11:40:35;3.30;99.90
14170;DHT22;63889;50.596;8.690;2023-02-15T11:45:56;2.80;99.90
14170;DHT22;63889;50.596;8.690;2023-02-15T11:48:21;2.60;99.90
14170;DHT22;63889;50.596;8.690;2023-02-15T11:50:47;2.70;99.90
14170;DHT22;63889;50.596;8.690;2023-02-15T11:53:16;2.70;99.90
14170;DHT22;63889;50.596;8.690;2023-02-15T11:55:46;2.80;99.90
14170;DHT22;63889;50.596;8.690;2023-02-15T12:04:04;3.30;99.90
14170;DHT22;63889;50.596;8.690;2023-02-15T12:06:35;3.50;99.90
14170;DHT22;63889;50.596;8.690;2023-02-15T12:11:40;3.80;99.90
14170;DHT22;63889;50.596;8.690;2023-02-15T12:14:13;3.80;99.90
14170;DHT22;63889;50.596;8.690;2023-02-15T12:16:49;3.80;99.90
14170;DHT22;63889;50.596;8.690;2023-02-15T12:19:36;3.70;99.90
14170;DHT22;63889;50.596;8.690;2023-02-15T12:22:03;3.70;99.90
14170;DHT22;63889;50.596;8.690;2023-02-15T12:24:33;3.60;99.90
14170;DHT22;63889;50.596;8.690;2023-02-15T12:27:13;3.60;99.90
14170;DHT22;63889;50.596;8.690;2023-02-15T12:29:42;3.50;99.90
14170;DHT22;63889;50.596;8.690;2023-02-15T12:33:03;3.50;99.90
14170;DHT22;63889;50.596;8.690;2023-02-15T12:35:14;3.30;99.90
14170;DHT22;63889;50.596;8.690;2023-02-15T12:37:56;3.30;99.90
14170;DHT22;63889;50.596;8.690;2023-02-15T12:40:30;3.40;99.90
14170;DHT22;63889;50.596;8.690;2023-02-15T12:42:56;3.30;99.90
14170;DHT22;63889;50.596;8.690;2023-02-15T12:45:28;3.40;99.90
14170;DHT22;63889;50.596;8.690;2023-02-15T12:50:39;3.70;99.90
14170;DHT22;63889;50.596;8.690;2023-02-15T12:53:20;3.60;99.90
14170;DHT22;63889;50.596;8.690;2023-02-15T12:55:59;3.50;99.90
14170;DHT22;63889;50.596;8.690;2023-02-15T12:58:32;3.50;99.90
14170;DHT22;63889;50.596;8.690;2023-02-15T13:01:14;3.50;99.90
14170;DHT22;63889;50.596;8.690;2023-02-15T13:04:04;3.60;99.90
14170;DHT22;63889;50.596;8.690;2023-02-15T13:06:32;3.60;99.90
14170;DHT22;63889;50.596;8.690;2023-02-15T13:09:15;3.50;99.90
14170;DHT22;63889;50.596;8.690;2023-02-15T13:11:43;3.70;99.90
14170;DHT22;63889;50.596;8.690;2023-02-15T13:14:20;3.60;99.90
14170;DHT22;63889;50.596;8.690;2023-02-15T13:16:51;3.40;99.90
14170;DHT22;63889;50.596;8.690;2023-02-15T13:19:22;3.20;99.90
14170;DHT22;63889;50.596;8.690;2023-02-15T13:21:53;3.30;99.90
14170;DHT22;63889;50.596;8.690;2023-02-15T13:24:24;3.10;99.90
14170;DHT22;63889;50.596;8.690;2023-02-15T13:26:55;3.00;99.90
14170;DHT22;63889;50.596;8.690;2023-02-15T13:29:46;3.10;99.90
14170;DHT22;63889;50.596;8.690;2023-02-15T13:34:48;2.70;99.90
14170;DHT22;63889;50.596;8.690;2023-02-15T13:40:09;3.10;99.90
14170;DHT22;63889;50.596;8.690;2023-02-15T14:02:29;3.20;99.90
14170;DHT22;63889;50.596;8.690;2023-02-15T14:18:46;2.70;99.90
14170;DHT22;63889;50.596;8.690;2023-02-15T14:21:26;2.70;99.90
14170;DHT22;63889;50.596;8.690;2023-02-15T14:32:19;2.50;99.90
14170;DHT22;63889;50.596;8.690;2023-02-15T14:34:57;2.50;99.90
14170;DHT22;63889;50.596;8.690;2023-02-15T14:38:02;2.50;99.90
14170;DHT22;63889;50.596;8.690;2023-02-15T14:40:36;2.60;99.90
14170;DHT22;63889;50.596;8.690;2023-02-15T14:43:55;3.00;99.90
14170;DHT22;63889;50.596;8.690;2023-02-15T14:46:42;3.10;99.90
14170;DHT22;63889;50.596;8.690;2023-02-15T14:49:22;3.00;99.90
14170;DHT22;63889;50.596;8.690;2023-02-15T14:57:20;2.80;99.90
14170;DHT22;63889;50.596;8.690;2023-02-15T15:07:54;2.50;99.90
14170;DHT22;63889;50.596;8.690;2023-02-15T15:18:03;2.60;99.90
14170;DHT22;63889;50.596;8.690;2023-02-15T15:23:39;2.60;99.90
14170;DHT22;63889;50.596;8.690;2023-02-15T15:26:22;2.70;99.90
14170;DHT22;63889;50.596;8.690;2023-02-15T15:31:18;2.90;99.90
14170;DHT22;63889;50.596;8.690;2023-02-15T15:42:21;3.50;99.90
14170;DHT22;63889;50.596;8.690;2023-02-15T15:48:02;3.50;99.90
14170;DHT22;63889;50.596;8.690;2023-02-15T15:50:32;3.30;99.90
14170;DHT22;63889;50.596;8.690;2023-02-15T15:52:59;3.50;99.90
14170;DHT22;63889;50.596;8.690;2023-02-15T15:55:28;3.50;99.90
14170;DHT22;63889;50.596;8.690;2023-02-15T15:58:05;3.30;99.90
14170;DHT22;63889;50.596;8.690;2023-02-15T16:00:46;3.00;99.90
14170;DHT22;63889;50.596;8.690;2023-02-15T16:03:21;3.00;99.90
14170;DHT22;63889;50.596;8.690;2023-02-15T16:05:47;3.00;99.90
14170;DHT22;63889;50.596;8.690;2023-02-15T16:08:36;3.00;99.90
14170;DHT22;63889;50.596;8.690;2023-02-15T16:11:21;3.10;99.90
14170;DHT22;63889;50.596;8.690;2023-02-15T16:13:48;3.40;99.90
14170;DHT22;63889;50.596;8.690;2023-02-15T16:16:20;3.60;99.90
14170;DHT22;63889;50.596;8.690;2023-02-15T16:18:47;3.70;99.90
14170;DHT22;63889;50.596;8.690;2023-02-15T16:21:27;3.80;99.90
14170;DHT22;63889;50.596;8.690;2023-02-15T16:29:31;3.50;99.90
14170;DHT22;63889;50.596;8.690;2023-02-15T16:32:05;3.40;99.90
14170;DHT22;63889;50.596;8.690;2023-02-15T16:34:32;3.40;99.90
14170;DHT22;63889;50.596;8.690;2023-02-15T16:37:19;3.40;99.90
14170;DHT22;63889;50.596;8.690;2023-02-15T16:39:46;3.40;99.90
14170;DHT22;63889;50.596;8.690;2023-02-15T16:42:15;3.20;99.90
14170;DHT22;63889;50.596;8.690;2023-02-15T16:44:41;3.30;99.90
14170;DHT22;63889;50.596;8.690;2023-02-15T16:47:16;3.10;99.90
14170;DHT22;63889;50.596;8.690;2023-02-15T16:49:47;3.20;99.90
14170;DHT22;63889;50.596;8.690;2023-02-15T16:52:19;3.20;99.90
14170;DHT22;63889;50.596;8.690;2023-02-15T16:54:49;3.20;99.90
14170;DHT22;63889;50.596;8.690;2023-02-15T16:57:19;3.30;99.90
14170;DHT22;63889;50.596;8.690;2023-02-15T16:59:48;3.40;99.90
14170;DHT22;63889;50.596;8.690;2023-02-15T17:02:34;3.40;99.90
14170;DHT22;63889;50.596;8.690;2023-02-15T17:07:49;3.70;99.90
14170;DHT22;63889;50.596;8.690;2023-02-15T17:10:27;3.80;99.90
14170;DHT22;63889;50.596;8.690;2023-02-15T17:12:55;3.90;99.90
14170;DHT22;63889;50.596;8.690;2023-02-15T17:15:42;3.70;99.90
14170;DHT22;63889;50.596;8.690;2023-02-15T17:18:25;3.30;99.90
14170;DHT22;63889;50.596;8.690;2023-02-15T17:20:54;3.20;99.90
14170;DHT22;63889;50.596;8.690;2023-02-15T17:23:28;3.30;99.90
14170;DHT22;63889;50.596;8.690;2023-02-15T17:25:55;3.30;99.90
14170;DHT22;63889;50.596;8.690;2023-02-15T17:28:24;3.30;99.90
14170;DHT22;63889;50.596;8.690;2023-02-15T17:30:52;3.30;99.90
14170;DHT22;63889;50.596;8.690;2023-02-15T17:33:38;3.50;99.90
14170;DHT22;63889;50.596;8.690;2023-02-15T17:38:39;3.60;99.90
14170;DHT22;63889;50.596;8.690;2023-02-15T17:41:05;3.70;99.90
14170;DHT22;63889;50.596;8.690;2023-02-15T17:43:31;3.70;99.90
14170;DHT22;63889;50.596;8.690;2023-02-15T17:45:57;3.70;99.90
14170;DHT22;63889;50.596;8.690;2023-02-15T17:51:42;3.30;99.90
14170;DHT22;63889;50.596;8.690;2023-02-15T17:54:08;3.30;99.90
14170;DHT22;63889;50.596;8.690;2023-02-15T17:56:52;3.30;99.90
14170;DHT22;63889;50.596;8.690;2023-02-15T17:59:18;3.40;99.90
14170;DHT22;63889;50.596;8.690;2023-02-15T18:01:48;3.40;99.90
14170;DHT22;63889;50.596;8.690;2023-02-15T18:04:33;3.50;99.90
14170;DHT22;63889;50.596;8.690;2023-02-15T18:07:19;3.60;99.90
14170;DHT22;63889;50.596;8.690;2023-02-15T18:10:16;3.70;99.90
14170;DHT22;63889;50.596;8.690;2023-02-15T18:13:01;3.40;99.90
14170;DHT22;63889;50.596;8.690;2023-02-15T18:15:27;3.40;99.90
14170;DHT22;63889;50.596;8.690;2023-02-15T18:17:53;3.60;99.90
14170;DHT22;63889;50.596;8.690;2023-02-15T18:20:23;3.40;99.90
14170;DHT22;63889;50.596;8.690;2023-02-15T18:22:50;3.30;99.90
14170;DHT22;63889;50.596;8.690;2023-02-15T18:25:18;3.40;99.90
14170;DHT22;63889;50.596;8.690;2023-02-15T18:27:44;3.20;99.90
14170;DHT22;63889;50.596;8.690;2023-02-15T18:30:15;3.00;99.90
14170;DHT22;63889;50.596;8.690;2023-02-15T18:32:42;3.00;99.90
14170;DHT22;63889;50.596;8.690;2023-02-15T18:35:17;3.00;99.90
14170;DHT22;63889;50.596;8.690;2023-02-15T18:37:44;3.10;99.90
14170;DHT22;63889;50.596;8.690;2023-02-15T18:40:30;3.20;99.90
14170;DHT22;63889;50.596;8.690;2023-02-15T18:42:55;3.20;99.90
14170;DHT22;63889;50.596;8.690;2023-02-15T18:45:24;3.20;99.90
14170;DHT22;63889;50.596;8.690;2023-02-15T18:47:51;3.00;99.90
14170;DHT22;63889;50.596;8.690;2023-02-15T18:50:19;3.00;99.90
14170;DHT22;63889;50.596;8.690;2023-02-15T18:52:46;3.20;99.90
14170;DHT22;63889;50.596;8.690;2023-02-15T18:55:23;3.30;99.90
14170;DHT22;63889;50.596;8.690;2023-02-15T18:57:51;3.50;99.90
14170;DHT22;63889;50.596;8.690;2023-02-15T19:00:20;3.60;99.90
14170;DHT22;63889;50.596;8.690;2023-02-15T19:02:47;3.70;99.90
14170;DHT22;63889;50.596;8.690;2023-02-15T19:05:12;3.60;99.90
14170;DHT22;63889;50.596;8.690;2023-02-15T19:07:39;3.70;99.90
14170;DHT22;63889;50.596;8.690;2023-02-15T19:10:07;3.50;99.90
14170;DHT22;63889;50.596;8.690;2023-02-15T19:12:33;3.50;99.90
14170;DHT22;63889;50.596;8.690;2023-02-15T19:14:59;3.70;99.90
14170;DHT22;63889;50.596;8.690;2023-02-15T19:17:26;3.80;99.90
14170;DHT22;63889;50.596;8.690;2023-02-15T19:19:52;3.90;99.90
14170;DHT22;63889;50.596;8.690;2023-02-15T19:22:28;3.80;99.90
14170;DHT22;63889;50.596;8.690;2023-02-15T19:24:59;3.80;99.90
14170;DHT22;63889;50.596;8.690;2023-02-15T19:27:26;3.80;99.90
14170;DHT22;63889;50.596;8.690;2023-02-15T19:29:53;3.90;99.90
14170;DHT22;63889;50.596;8.690;2023-02-15T19:32:19;3.80;99.90